sensor_id;sensor_type;location;lat;lon;timestamp;P1;durP1;ratioP1;P2;durP2;ratioP2
76962;SDS011;65902;51.452;7.198;2023-05-23T00:00:43;17.02;;;10.93;;
76962;SDS011;65902;51.452;7.198;2023-05-23T00:01:44;13.48;;;10.13;;
76962;SDS011;65902;51.452;7.198;2023-05-23T00:02:45;14.43;;;10.50;;
76962;SDS011;65902;51.452;7.198;2023-05-23T00:03:46;13.07;;;10.15;;
76962;SDS011;65902;51.452;7.198;2023-05-23T00:04:48;13.95;;;10.45;;
76962;SDS011;65902;51.452;7.198;2023-05-23T00:05:52;16.92;;;11.00;;
76962;SDS011;65902;51.452;7.198;2023-05-23T00:06:55;14.95;;;12.27;;
76962;SDS011;65902;51.452;7.198;2023-05-23T00:07:59;13.15;;;9.98;;
76962;SDS011;65902;51.452;7.198;2023-05-23T00:09:03;16.27;;;14.32;;
76962;SDS011;65902;51.452;7.198;2023-05-23T00:10:12;13.93;;;10.77;;
76962;SDS011;65902;51.452;7.198;2023-05-23T00:11:25;16.50;;;11.98;;
76962;SDS011;65902;51.452;7.198;2023-05-23T00:12:38;14.93;;;10.52;;
76962;SDS011;65902;51.452;7.198;2023-05-23T00:13:38;13.27;;;9.50;;
76962;SDS011;65902;51.452;7.198;2023-05-23T00:14:50;15.10;;;9.88;;
76962;SDS011;65902;51.452;7.198;2023-05-23T00:15:55;14.32;;;10.60;;
76962;SDS011;65902;51.452;7.198;2023-05-23T00:16:57;15.32;;;10.75;;
76962;SDS011;65902;51.452;7.198;2023-05-23T00:18:07;16.13;;;10.32;;
76962;SDS011;65902;51.452;7.198;2023-05-23T00:19:29;12.63;;;9.73;;
76962;SDS011;65902;51.452;7.198;2023-05-23T00:20:30;12.98;;;10.40;;
76962;SDS011;65902;51.452;7.198;2023-05-23T00:21:40;12.32;;;9.25;;
76962;SDS011;65902;51.452;7.198;2023-05-23T00:22:49;12.77;;;8.93;;
76962;SDS011;65902;51.452;7.198;2023-05-23T00:24:08;12.35;;;10.80;;
76962;SDS011;65902;51.452;7.198;2023-05-23T00:25:09;9.50;;;7.15;;
76962;SDS011;65902;51.452;7.198;2023-05-23T00:26:33;11.85;;;9.38;;
76962;SDS011;65902;51.452;7.198;2023-05-23T00:27:38;13.57;;;8.95;;
76962;SDS011;65902;51.452;7.198;2023-05-23T00:28:41;12.80;;;9.05;;
76962;SDS011;65902;51.452;7.198;2023-05-23T00:29:44;13.07;;;9.45;;
76962;SDS011;65902;51.452;7.198;2023-05-23T00:30:47;13.77;;;9.30;;
76962;SDS011;65902;51.452;7.198;2023-05-23T00:31:54;12.50;;;10.35;;
76962;SDS011;65902;51.452;7.198;2023-05-23T00:32:54;13.00;;;11.60;;
76962;SDS011;65902;51.452;7.198;2023-05-23T00:33:55;13.60;;;10.48;;
76962;SDS011;65902;51.452;7.198;2023-05-23T00:35:03;13.45;;;9.85;;
76962;SDS011;65902;51.452;7.198;2023-05-23T00:36:07;14.25;;;10.13;;
76962;SDS011;65902;51.452;7.198;2023-05-23T00:37:08;14.32;;;10.35;;
76962;SDS011;65902;51.452;7.198;2023-05-23T00:38:29;14.93;;;10.07;;
76962;SDS011;65902;51.452;7.198;2023-05-23T00:39:38;11.98;;;10.20;;
76962;SDS011;65902;51.452;7.198;2023-05-23T00:40:42;12.00;;;9.07;;
76962;SDS011;65902;51.452;7.198;2023-05-23T00:41:42;9.65;;;8.50;;
76962;SDS011;65902;51.452;7.198;2023-05-23T00:42:43;11.85;;;7.50;;
76962;SDS011;65902;51.452;7.198;2023-05-23T00:43:43;10.38;;;7.28;;
76962;SDS011;65902;51.452;7.198;2023-05-23T00:44:47;10.43;;;7.75;;
76962;SDS011;65902;51.452;7.198;2023-05-23T00:45:49;9.93;;;7.00;;
76962;SDS011;65902;51.452;7.198;2023-05-23T00:46:51;9.52;;;7.43;;
76962;SDS011;65902;51.452;7.198;2023-05-23T00:47:54;9.27;;;7.00;;
76962;SDS011;65902;51.452;7.198;2023-05-23T00:49:01;10.10;;;6.80;;
76962;SDS011;65902;51.452;7.198;2023-05-23T00:52:23;8.77;;;6.43;;
76962;SDS011;65902;51.452;7.198;2023-05-23T00:53:23;7.28;;;5.57;;
76962;SDS011;65902;51.452;7.198;2023-05-23T00:54:25;6.72;;;5.53;;
76962;SDS011;65902;51.452;7.198;2023-05-23T00:55:30;7.43;;;6.03;;
76962;SDS011;65902;51.452;7.198;2023-05-23T00:56:34;7.53;;;6.20;;
76962;SDS011;65902;51.452;7.198;2023-05-23T00:57:42;7.93;;;5.97;;
76962;SDS011;65902;51.452;7.198;2023-05-23T00:59:59;7.57;;;6.78;;
76962;SDS011;65902;51.452;7.198;2023-05-23T01:01:00;7.65;;;6.82;;
76962;SDS011;65902;51.452;7.198;2023-05-23T01:02:00;8.27;;;6.07;;
76962;SDS011;65902;51.452;7.198;2023-05-23T01:03:05;8.38;;;6.47;;
76962;SDS011;65902;51.452;7.198;2023-05-23T01:04:05;10.05;;;6.80;;
76962;SDS011;65902;51.452;7.198;2023-05-23T01:05:06;8.77;;;7.00;;
76962;SDS011;65902;51.452;7.198;2023-05-23T01:06:10;8.20;;;6.22;;
76962;SDS011;65902;51.452;7.198;2023-05-23T01:07:13;7.35;;;5.85;;
76962;SDS011;65902;51.452;7.198;2023-05-23T01:08:25;7.38;;;6.13;;
76962;SDS011;65902;51.452;7.198;2023-05-23T01:09:28;7.63;;;6.22;;
76962;SDS011;65902;51.452;7.198;2023-05-23T01:10:34;9.27;;;6.57;;
76962;SDS011;65902;51.452;7.198;2023-05-23T01:11:54;9.52;;;6.97;;
76962;SDS011;65902;51.452;7.198;2023-05-23T01:14:18;8.18;;;6.80;;
76962;SDS011;65902;51.452;7.198;2023-05-23T01:16:59;10.20;;;5.97;;
76962;SDS011;65902;51.452;7.198;2023-05-23T01:18:15;9.30;;;8.45;;
76962;SDS011;65902;51.452;7.198;2023-05-23T01:19:25;7.85;;;6.13;;
76962;SDS011;65902;51.452;7.198;2023-05-23T01:20:30;8.13;;;6.07;;
76962;SDS011;65902;51.452;7.198;2023-05-23T01:22:59;8.02;;;6.07;;
76962;SDS011;65902;51.452;7.198;2023-05-23T01:25:08;7.22;;;5.95;;
76962;SDS011;65902;51.452;7.198;2023-05-23T01:28:22;9.48;;;8.38;;
76962;SDS011;65902;51.452;7.198;2023-05-23T01:29:42;9.63;;;7.10;;
76962;SDS011;65902;51.452;7.198;2023-05-23T01:30:47;7.93;;;6.05;;
76962;SDS011;65902;51.452;7.198;2023-05-23T01:31:54;8.15;;;6.03;;
76962;SDS011;65902;51.452;7.198;2023-05-23T01:33:08;7.93;;;6.68;;
76962;SDS011;65902;51.452;7.198;2023-05-23T01:34:11;7.18;;;6.22;;
76962;SDS011;65902;51.452;7.198;2023-05-23T01:36:15;7.97;;;6.28;;
76962;SDS011;65902;51.452;7.198;2023-05-23T01:37:15;7.97;;;6.25;;
76962;SDS011;65902;51.452;7.198;2023-05-23T01:39:18;8.43;;;6.15;;
76962;SDS011;65902;51.452;7.198;2023-05-23T01:40:19;9.23;;;6.63;;
76962;SDS011;65902;51.452;7.198;2023-05-23T01:41:20;8.65;;;6.65;;
76962;SDS011;65902;51.452;7.198;2023-05-23T01:42:20;8.02;;;6.30;;
76962;SDS011;65902;51.452;7.198;2023-05-23T01:43:24;9.20;;;6.72;;
76962;SDS011;65902;51.452;7.198;2023-05-23T01:44:24;6.53;;;5.53;;
76962;SDS011;65902;51.452;7.198;2023-05-23T01:45:30;8.82;;;6.47;;
76962;SDS011;65902;51.452;7.198;2023-05-23T01:46:41;9.85;;;6.35;;
76962;SDS011;65902;51.452;7.198;2023-05-23T01:48:09;8.35;;;6.40;;
76962;SDS011;65902;51.452;7.198;2023-05-23T01:49:28;7.25;;;6.55;;
76962;SDS011;65902;51.452;7.198;2023-05-23T01:50:34;10.25;;;9.25;;
76962;SDS011;65902;51.452;7.198;2023-05-23T01:51:47;8.90;;;8.00;;
76962;SDS011;65902;51.452;7.198;2023-05-23T01:52:47;9.77;;;8.13;;
76962;SDS011;65902;51.452;7.198;2023-05-23T01:53:51;9.10;;;7.00;;
76962;SDS011;65902;51.452;7.198;2023-05-23T01:54:53;9.00;;;7.88;;
76962;SDS011;65902;51.452;7.198;2023-05-23T01:55:55;10.25;;;7.43;;
76962;SDS011;65902;51.452;7.198;2023-05-23T01:57:02;9.43;;;7.97;;
76962;SDS011;65902;51.452;7.198;2023-05-23T01:58:03;10.23;;;7.28;;
76962;SDS011;65902;51.452;7.198;2023-05-23T01:59:04;10.55;;;7.70;;
76962;SDS011;65902;51.452;7.198;2023-05-23T02:00:08;8.40;;;7.50;;
76962;SDS011;65902;51.452;7.198;2023-05-23T02:01:12;7.60;;;6.65;;
76962;SDS011;65902;51.452;7.198;2023-05-23T02:02:18;10.68;;;8.63;;
76962;SDS011;65902;51.452;7.198;2023-05-23T02:03:24;10.00;;;6.80;;
76962;SDS011;65902;51.452;7.198;2023-05-23T02:04:27;12.98;;;7.45;;
76962;SDS011;65902;51.452;7.198;2023-05-23T02:05:30;8.93;;;6.95;;
76962;SDS011;65902;51.452;7.198;2023-05-23T02:06:36;8.80;;;7.97;;
76962;SDS011;65902;51.452;7.198;2023-05-23T02:07:39;8.55;;;6.88;;
76962;SDS011;65902;51.452;7.198;2023-05-23T02:08:43;9.05;;;7.13;;
76962;SDS011;65902;51.452;7.198;2023-05-23T02:09:43;10.07;;;6.82;;
76962;SDS011;65902;51.452;7.198;2023-05-23T02:10:46;8.73;;;7.47;;
76962;SDS011;65902;51.452;7.198;2023-05-23T02:12:00;9.50;;;7.55;;
76962;SDS011;65902;51.452;7.198;2023-05-23T02:13:01;9.25;;;7.47;;
76962;SDS011;65902;51.452;7.198;2023-05-23T02:14:06;10.35;;;7.28;;
76962;SDS011;65902;51.452;7.198;2023-05-23T02:15:09;9.52;;;6.68;;
76962;SDS011;65902;51.452;7.198;2023-05-23T02:16:10;9.13;;;7.30;;
76962;SDS011;65902;51.452;7.198;2023-05-23T02:17:10;9.35;;;7.15;;
76962;SDS011;65902;51.452;7.198;2023-05-23T02:18:14;8.18;;;6.97;;
76962;SDS011;65902;51.452;7.198;2023-05-23T02:19:14;9.65;;;7.35;;
76962;SDS011;65902;51.452;7.198;2023-05-23T02:20:20;8.15;;;7.28;;
76962;SDS011;65902;51.452;7.198;2023-05-23T02:21:24;10.07;;;8.45;;
76962;SDS011;65902;51.452;7.198;2023-05-23T02:22:24;10.93;;;7.70;;
76962;SDS011;65902;51.452;7.198;2023-05-23T02:23:24;9.68;;;8.65;;
76962;SDS011;65902;51.452;7.198;2023-05-23T02:24:37;10.30;;;8.27;;
76962;SDS011;65902;51.452;7.198;2023-05-23T02:25:37;11.45;;;7.47;;
76962;SDS011;65902;51.452;7.198;2023-05-23T02:26:46;8.98;;;7.35;;
76962;SDS011;65902;51.452;7.198;2023-05-23T02:27:46;8.52;;;7.53;;
76962;SDS011;65902;51.452;7.198;2023-05-23T02:28:47;13.20;;;9.23;;
76962;SDS011;65902;51.452;7.198;2023-05-23T02:29:50;10.77;;;7.97;;
76962;SDS011;65902;51.452;7.198;2023-05-23T02:30:53;9.93;;;7.55;;
76962;SDS011;65902;51.452;7.198;2023-05-23T02:32:01;8.88;;;7.88;;
76962;SDS011;65902;51.452;7.198;2023-05-23T02:33:04;11.55;;;8.25;;
76962;SDS011;65902;51.452;7.198;2023-05-23T02:34:07;10.15;;;8.75;;
76962;SDS011;65902;51.452;7.198;2023-05-23T02:35:07;15.40;;;8.80;;
76962;SDS011;65902;51.452;7.198;2023-05-23T02:36:09;10.52;;;7.82;;
76962;SDS011;65902;51.452;7.198;2023-05-23T02:37:19;10.38;;;9.30;;
76962;SDS011;65902;51.452;7.198;2023-05-23T02:38:21;10.23;;;8.13;;
76962;SDS011;65902;51.452;7.198;2023-05-23T02:39:34;12.52;;;8.15;;
76962;SDS011;65902;51.452;7.198;2023-05-23T02:40:40;10.57;;;8.98;;
76962;SDS011;65902;51.452;7.198;2023-05-23T02:41:49;11.30;;;8.73;;
76962;SDS011;65902;51.452;7.198;2023-05-23T02:42:49;11.38;;;8.95;;
76962;SDS011;65902;51.452;7.198;2023-05-23T02:43:50;12.85;;;9.35;;
76962;SDS011;65902;51.452;7.198;2023-05-23T02:44:51;10.55;;;8.10;;
76962;SDS011;65902;51.452;7.198;2023-05-23T02:45:52;9.50;;;8.20;;
76962;SDS011;65902;51.452;7.198;2023-05-23T02:46:54;10.20;;;8.98;;
76962;SDS011;65902;51.452;7.198;2023-05-23T02:47:54;11.00;;;8.07;;
76962;SDS011;65902;51.452;7.198;2023-05-23T02:49:00;12.90;;;8.65;;
76962;SDS011;65902;51.452;7.198;2023-05-23T02:50:00;11.38;;;9.30;;
76962;SDS011;65902;51.452;7.198;2023-05-23T02:51:24;10.95;;;8.55;;
76962;SDS011;65902;51.452;7.198;2023-05-23T02:52:45;13.18;;;8.10;;
76962;SDS011;65902;51.452;7.198;2023-05-23T02:53:48;11.18;;;8.93;;
76962;SDS011;65902;51.452;7.198;2023-05-23T02:54:51;12.90;;;9.40;;
76962;SDS011;65902;51.452;7.198;2023-05-23T02:55:51;12.50;;;8.32;;
76962;SDS011;65902;51.452;7.198;2023-05-23T02:56:57;12.77;;;8.27;;
76962;SDS011;65902;51.452;7.198;2023-05-23T02:58:04;11.15;;;8.85;;
76962;SDS011;65902;51.452;7.198;2023-05-23T02:59:04;10.82;;;9.13;;
76962;SDS011;65902;51.452;7.198;2023-05-23T03:00:05;10.35;;;8.75;;
76962;SDS011;65902;51.452;7.198;2023-05-23T03:01:07;13.40;;;9.20;;
76962;SDS011;65902;51.452;7.198;2023-05-23T03:02:13;12.98;;;10.30;;
76962;SDS011;65902;51.452;7.198;2023-05-23T03:03:17;11.43;;;10.13;;
76962;SDS011;65902;51.452;7.198;2023-05-23T03:04:17;13.32;;;9.48;;
76962;SDS011;65902;51.452;7.198;2023-05-23T03:05:17;13.68;;;9.52;;
76962;SDS011;65902;51.452;7.198;2023-05-23T03:06:18;13.02;;;9.35;;
76962;SDS011;65902;51.452;7.198;2023-05-23T03:07:26;13.07;;;8.80;;
76962;SDS011;65902;51.452;7.198;2023-05-23T03:08:30;10.93;;;8.50;;
76962;SDS011;65902;51.452;7.198;2023-05-23T03:09:31;11.57;;;10.43;;
76962;SDS011;65902;51.452;7.198;2023-05-23T03:10:32;16.75;;;15.15;;
76962;SDS011;65902;51.452;7.198;2023-05-23T03:11:35;12.85;;;9.30;;
76962;SDS011;65902;51.452;7.198;2023-05-23T03:12:35;13.23;;;9.18;;
76962;SDS011;65902;51.452;7.198;2023-05-23T03:13:39;14.25;;;12.68;;
76962;SDS011;65902;51.452;7.198;2023-05-23T03:14:42;13.43;;;9.85;;
76962;SDS011;65902;51.452;7.198;2023-05-23T03:15:42;12.27;;;9.98;;
76962;SDS011;65902;51.452;7.198;2023-05-23T03:16:43;11.32;;;10.15;;
76962;SDS011;65902;51.452;7.198;2023-05-23T03:17:44;12.75;;;9.40;;
76962;SDS011;65902;51.452;7.198;2023-05-23T03:18:44;27.73;;;9.18;;
76962;SDS011;65902;51.452;7.198;2023-05-23T03:19:47;13.57;;;12.07;;
76962;SDS011;65902;51.452;7.198;2023-05-23T03:20:57;13.40;;;8.95;;
76962;SDS011;65902;51.452;7.198;2023-05-23T03:21:57;13.32;;;9.48;;
76962;SDS011;65902;51.452;7.198;2023-05-23T03:23:00;12.55;;;8.45;;
76962;SDS011;65902;51.452;7.198;2023-05-23T03:24:03;11.82;;;8.02;;
76962;SDS011;65902;51.452;7.198;2023-05-23T03:25:07;14.75;;;12.07;;
76962;SDS011;65902;51.452;7.198;2023-05-23T03:26:10;13.55;;;8.93;;
76962;SDS011;65902;51.452;7.198;2023-05-23T03:27:11;11.05;;;7.47;;
76962;SDS011;65902;51.452;7.198;2023-05-23T03:28:11;9.82;;;7.70;;
76962;SDS011;65902;51.452;7.198;2023-05-23T03:29:11;12.60;;;8.10;;
76962;SDS011;65902;51.452;7.198;2023-05-23T03:30:12;10.55;;;7.63;;
76962;SDS011;65902;51.452;7.198;2023-05-23T03:31:13;11.80;;;7.57;;
76962;SDS011;65902;51.452;7.198;2023-05-23T03:32:13;10.27;;;7.78;;
76962;SDS011;65902;51.452;7.198;2023-05-23T03:33:13;10.63;;;8.23;;
76962;SDS011;65902;51.452;7.198;2023-05-23T03:34:15;10.75;;;6.93;;
76962;SDS011;65902;51.452;7.198;2023-05-23T03:35:16;10.98;;;7.22;;
76962;SDS011;65902;51.452;7.198;2023-05-23T03:36:16;12.00;;;8.82;;
76962;SDS011;65902;51.452;7.198;2023-05-23T03:37:18;9.23;;;7.13;;
76962;SDS011;65902;51.452;7.198;2023-05-23T03:38:19;14.18;;;7.80;;
76962;SDS011;65902;51.452;7.198;2023-05-23T03:39:20;12.45;;;9.88;;
76962;SDS011;65902;51.452;7.198;2023-05-23T03:40:20;11.82;;;9.15;;
76962;SDS011;65902;51.452;7.198;2023-05-23T03:41:21;11.65;;;8.57;;
76962;SDS011;65902;51.452;7.198;2023-05-23T03:42:22;12.70;;;8.57;;
76962;SDS011;65902;51.452;7.198;2023-05-23T03:43:22;13.80;;;9.57;;
76962;SDS011;65902;51.452;7.198;2023-05-23T03:44:23;11.80;;;8.70;;
76962;SDS011;65902;51.452;7.198;2023-05-23T03:45:24;12.45;;;9.05;;
76962;SDS011;65902;51.452;7.198;2023-05-23T03:46:26;11.40;;;8.02;;
76962;SDS011;65902;51.452;7.198;2023-05-23T03:47:26;12.13;;;9.50;;
76962;SDS011;65902;51.452;7.198;2023-05-23T03:48:27;13.52;;;9.38;;
76962;SDS011;65902;51.452;7.198;2023-05-23T03:49:29;14.52;;;10.23;;
76962;SDS011;65902;51.452;7.198;2023-05-23T03:50:30;12.90;;;9.30;;
76962;SDS011;65902;51.452;7.198;2023-05-23T03:51:31;11.05;;;9.38;;
76962;SDS011;65902;51.452;7.198;2023-05-23T03:52:31;13.18;;;9.07;;
76962;SDS011;65902;51.452;7.198;2023-05-23T03:53:32;10.98;;;9.48;;
76962;SDS011;65902;51.452;7.198;2023-05-23T03:54:32;12.48;;;8.63;;
76962;SDS011;65902;51.452;7.198;2023-05-23T03:55:32;13.05;;;9.38;;
76962;SDS011;65902;51.452;7.198;2023-05-23T03:56:33;16.23;;;9.52;;
76962;SDS011;65902;51.452;7.198;2023-05-23T03:57:34;13.52;;;9.45;;
76962;SDS011;65902;51.452;7.198;2023-05-23T03:58:34;14.43;;;9.82;;
76962;SDS011;65902;51.452;7.198;2023-05-23T03:59:35;13.40;;;8.90;;
76962;SDS011;65902;51.452;7.198;2023-05-23T04:00:35;12.75;;;10.32;;
76962;SDS011;65902;51.452;7.198;2023-05-23T04:01:36;14.85;;;9.40;;
76962;SDS011;65902;51.452;7.198;2023-05-23T04:02:36;10.93;;;8.52;;
76962;SDS011;65902;51.452;7.198;2023-05-23T04:03:38;12.73;;;8.93;;
76962;SDS011;65902;51.452;7.198;2023-05-23T04:04:39;13.57;;;9.05;;
76962;SDS011;65902;51.452;7.198;2023-05-23T04:05:40;12.10;;;9.60;;
76962;SDS011;65902;51.452;7.198;2023-05-23T04:06:41;13.50;;;9.68;;
76962;SDS011;65902;51.452;7.198;2023-05-23T04:07:41;14.65;;;10.65;;
76962;SDS011;65902;51.452;7.198;2023-05-23T04:08:42;14.00;;;12.02;;
76962;SDS011;65902;51.452;7.198;2023-05-23T04:09:42;12.45;;;9.65;;
76962;SDS011;65902;51.452;7.198;2023-05-23T04:10:43;15.00;;;10.63;;
76962;SDS011;65902;51.452;7.198;2023-05-23T04:11:44;11.68;;;9.50;;
76962;SDS011;65902;51.452;7.198;2023-05-23T04:12:44;11.73;;;9.32;;
76962;SDS011;65902;51.452;7.198;2023-05-23T04:13:44;13.82;;;9.57;;
76962;SDS011;65902;51.452;7.198;2023-05-23T04:14:46;13.02;;;9.60;;
76962;SDS011;65902;51.452;7.198;2023-05-23T04:15:47;14.43;;;10.45;;
76962;SDS011;65902;51.452;7.198;2023-05-23T04:16:48;13.23;;;10.30;;
76962;SDS011;65902;51.452;7.198;2023-05-23T04:17:48;14.15;;;9.77;;
76962;SDS011;65902;51.452;7.198;2023-05-23T04:18:50;13.68;;;9.82;;
76962;SDS011;65902;51.452;7.198;2023-05-23T04:19:51;12.05;;;9.77;;
76962;SDS011;65902;51.452;7.198;2023-05-23T04:20:51;13.15;;;9.55;;
76962;SDS011;65902;51.452;7.198;2023-05-23T04:21:52;14.02;;;10.57;;
76962;SDS011;65902;51.452;7.198;2023-05-23T04:22:53;13.38;;;10.15;;
76962;SDS011;65902;51.452;7.198;2023-05-23T04:23:53;14.68;;;9.60;;
76962;SDS011;65902;51.452;7.198;2023-05-23T04:24:53;13.98;;;10.23;;
76962;SDS011;65902;51.452;7.198;2023-05-23T04:25:53;15.73;;;10.75;;
76962;SDS011;65902;51.452;7.198;2023-05-23T04:26:54;14.80;;;9.77;;
76962;SDS011;65902;51.452;7.198;2023-05-23T04:27:55;13.15;;;9.55;;
76962;SDS011;65902;51.452;7.198;2023-05-23T04:28:56;13.15;;;9.18;;
76962;SDS011;65902;51.452;7.198;2023-05-23T04:29:58;13.55;;;9.23;;
76962;SDS011;65902;51.452;7.198;2023-05-23T04:31:00;15.00;;;9.20;;
76962;SDS011;65902;51.452;7.198;2023-05-23T04:32:02;15.52;;;9.05;;
76962;SDS011;65902;51.452;7.198;2023-05-23T04:33:03;14.23;;;8.82;;
76962;SDS011;65902;51.452;7.198;2023-05-23T04:34:04;13.05;;;8.85;;
76962;SDS011;65902;51.452;7.198;2023-05-23T04:35:05;13.43;;;9.27;;
76962;SDS011;65902;51.452;7.198;2023-05-23T04:36:06;14.38;;;9.43;;
76962;SDS011;65902;51.452;7.198;2023-05-23T04:37:08;14.00;;;9.98;;
76962;SDS011;65902;51.452;7.198;2023-05-23T04:38:09;13.65;;;10.10;;
76962;SDS011;65902;51.452;7.198;2023-05-23T04:39:09;12.93;;;9.63;;
76962;SDS011;65902;51.452;7.198;2023-05-23T04:40:10;14.38;;;9.98;;
76962;SDS011;65902;51.452;7.198;2023-05-23T04:41:11;13.38;;;9.00;;
76962;SDS011;65902;51.452;7.198;2023-05-23T04:42:11;13.57;;;9.88;;
76962;SDS011;65902;51.452;7.198;2023-05-23T04:43:12;12.88;;;9.00;;
76962;SDS011;65902;51.452;7.198;2023-05-23T04:44:13;15.25;;;8.95;;
76962;SDS011;65902;51.452;7.198;2023-05-23T04:45:15;11.95;;;9.15;;
76962;SDS011;65902;51.452;7.198;2023-05-23T04:46:16;10.85;;;8.25;;
76962;SDS011;65902;51.452;7.198;2023-05-23T04:47:17;12.30;;;8.23;;
76962;SDS011;65902;51.452;7.198;2023-05-23T04:48:18;11.85;;;8.32;;
76962;SDS011;65902;51.452;7.198;2023-05-23T04:49:20;13.82;;;9.30;;
76962;SDS011;65902;51.452;7.198;2023-05-23T04:50:21;13.18;;;9.00;;
76962;SDS011;65902;51.452;7.198;2023-05-23T04:51:22;12.82;;;8.82;;
76962;SDS011;65902;51.452;7.198;2023-05-23T04:52:24;10.18;;;7.95;;
76962;SDS011;65902;51.452;7.198;2023-05-23T04:53:26;15.05;;;9.18;;
76962;SDS011;65902;51.452;7.198;2023-05-23T04:54:26;12.77;;;9.10;;
76962;SDS011;65902;51.452;7.198;2023-05-23T04:55:27;16.85;;;8.25;;
76962;SDS011;65902;51.452;7.198;2023-05-23T04:56:27;13.30;;;9.18;;
76962;SDS011;65902;51.452;7.198;2023-05-23T04:57:28;12.75;;;9.20;;
76962;SDS011;65902;51.452;7.198;2023-05-23T04:58:28;15.65;;;8.77;;
76962;SDS011;65902;51.452;7.198;2023-05-23T04:59:29;11.40;;;8.10;;
76962;SDS011;65902;51.452;7.198;2023-05-23T05:00:29;12.70;;;7.60;;
76962;SDS011;65902;51.452;7.198;2023-05-23T05:01:29;14.15;;;9.20;;
76962;SDS011;65902;51.452;7.198;2023-05-23T05:02:30;12.85;;;8.63;;
76962;SDS011;65902;51.452;7.198;2023-05-23T05:03:35;14.85;;;8.82;;
76962;SDS011;65902;51.452;7.198;2023-05-23T05:04:36;12.32;;;9.30;;
76962;SDS011;65902;51.452;7.198;2023-05-23T05:05:37;15.80;;;9.63;;
76962;SDS011;65902;51.452;7.198;2023-05-23T05:06:39;12.10;;;9.27;;
76962;SDS011;65902;51.452;7.198;2023-05-23T05:07:40;11.00;;;8.38;;
76962;SDS011;65902;51.452;7.198;2023-05-23T05:08:41;13.65;;;8.75;;
76962;SDS011;65902;51.452;7.198;2023-05-23T05:09:41;11.95;;;9.43;;
76962;SDS011;65902;51.452;7.198;2023-05-23T05:10:42;19.13;;;9.85;;
76962;SDS011;65902;51.452;7.198;2023-05-23T05:11:42;12.45;;;8.10;;
76962;SDS011;65902;51.452;7.198;2023-05-23T05:12:45;14.32;;;9.65;;
76962;SDS011;65902;51.452;7.198;2023-05-23T05:13:48;12.95;;;8.57;;
76962;SDS011;65902;51.452;7.198;2023-05-23T05:14:49;15.00;;;10.02;;
76962;SDS011;65902;51.452;7.198;2023-05-23T05:15:49;11.65;;;8.80;;
76962;SDS011;65902;51.452;7.198;2023-05-23T05:16:49;13.50;;;9.60;;
76962;SDS011;65902;51.452;7.198;2023-05-23T05:17:50;15.32;;;10.40;;
76962;SDS011;65902;51.452;7.198;2023-05-23T05:18:51;14.18;;;12.80;;
76962;SDS011;65902;51.452;7.198;2023-05-23T05:19:51;16.35;;;10.38;;
76962;SDS011;65902;51.452;7.198;2023-05-23T05:20:52;15.50;;;10.68;;
76962;SDS011;65902;51.452;7.198;2023-05-23T05:21:53;14.20;;;9.35;;
76962;SDS011;65902;51.452;7.198;2023-05-23T05:22:55;12.77;;;10.95;;
76962;SDS011;65902;51.452;7.198;2023-05-23T05:23:57;13.38;;;9.77;;
76962;SDS011;65902;51.452;7.198;2023-05-23T05:24:59;18.05;;;12.20;;
76962;SDS011;65902;51.452;7.198;2023-05-23T05:26:01;15.75;;;9.30;;
76962;SDS011;65902;51.452;7.198;2023-05-23T05:27:03;15.32;;;9.60;;
76962;SDS011;65902;51.452;7.198;2023-05-23T05:28:04;17.67;;;10.07;;
76962;SDS011;65902;51.452;7.198;2023-05-23T05:29:07;14.73;;;9.73;;
76962;SDS011;65902;51.452;7.198;2023-05-23T05:30:08;16.13;;;11.60;;
76962;SDS011;65902;51.452;7.198;2023-05-23T05:31:09;16.02;;;12.80;;
76962;SDS011;65902;51.452;7.198;2023-05-23T05:32:18;17.00;;;12.60;;
76962;SDS011;65902;51.452;7.198;2023-05-23T05:33:19;14.35;;;10.68;;
76962;SDS011;65902;51.452;7.198;2023-05-23T05:34:20;17.65;;;12.75;;
76962;SDS011;65902;51.452;7.198;2023-05-23T05:35:21;17.08;;;12.27;;
76962;SDS011;65902;51.452;7.198;2023-05-23T05:36:22;14.55;;;11.60;;
76962;SDS011;65902;51.452;7.198;2023-05-23T05:37:23;14.32;;;10.38;;
76962;SDS011;65902;51.452;7.198;2023-05-23T05:38:24;14.85;;;9.18;;
76962;SDS011;65902;51.452;7.198;2023-05-23T05:39:24;14.20;;;10.40;;
76962;SDS011;65902;51.452;7.198;2023-05-23T05:40:25;17.00;;;10.35;;
76962;SDS011;65902;51.452;7.198;2023-05-23T05:41:25;18.85;;;12.52;;
76962;SDS011;65902;51.452;7.198;2023-05-23T05:42:26;15.82;;;10.05;;
76962;SDS011;65902;51.452;7.198;2023-05-23T05:43:27;16.48;;;10.70;;
76962;SDS011;65902;51.452;7.198;2023-05-23T05:44:28;16.35;;;10.10;;
76962;SDS011;65902;51.452;7.198;2023-05-23T05:45:29;17.10;;;10.27;;
76962;SDS011;65902;51.452;7.198;2023-05-23T05:46:30;18.23;;;10.57;;
76962;SDS011;65902;51.452;7.198;2023-05-23T05:47:31;15.27;;;9.57;;
76962;SDS011;65902;51.452;7.198;2023-05-23T05:48:32;16.88;;;9.93;;
76962;SDS011;65902;51.452;7.198;2023-05-23T05:49:32;14.35;;;9.93;;
76962;SDS011;65902;51.452;7.198;2023-05-23T05:50:33;17.75;;;10.60;;
76962;SDS011;65902;51.452;7.198;2023-05-23T05:51:33;14.75;;;10.20;;
76962;SDS011;65902;51.452;7.198;2023-05-23T05:52:34;19.70;;;10.70;;
76962;SDS011;65902;51.452;7.198;2023-05-23T05:53:38;17.27;;;11.05;;
76962;SDS011;65902;51.452;7.198;2023-05-23T05:54:39;18.45;;;10.02;;
76962;SDS011;65902;51.452;7.198;2023-05-23T05:55:41;15.70;;;10.50;;
76962;SDS011;65902;51.452;7.198;2023-05-23T05:56:42;18.27;;;9.70;;
76962;SDS011;65902;51.452;7.198;2023-05-23T05:57:43;17.67;;;11.55;;
76962;SDS011;65902;51.452;7.198;2023-05-23T05:58:44;17.05;;;11.23;;
76962;SDS011;65902;51.452;7.198;2023-05-23T05:59:45;21.63;;;11.77;;
76962;SDS011;65902;51.452;7.198;2023-05-23T06:00:46;14.85;;;11.07;;
76962;SDS011;65902;51.452;7.198;2023-05-23T06:01:48;17.60;;;15.30;;
76962;SDS011;65902;51.452;7.198;2023-05-23T06:02:50;15.68;;;11.18;;
76962;SDS011;65902;51.452;7.198;2023-05-23T06:03:54;17.50;;;11.60;;
76962;SDS011;65902;51.452;7.198;2023-05-23T06:04:55;19.08;;;11.95;;
76962;SDS011;65902;51.452;7.198;2023-05-23T06:05:56;15.82;;;10.57;;
76962;SDS011;65902;51.452;7.198;2023-05-23T06:06:57;16.33;;;11.25;;
76962;SDS011;65902;51.452;7.198;2023-05-23T06:08:02;18.13;;;11.20;;
76962;SDS011;65902;51.452;7.198;2023-05-23T06:09:03;16.20;;;10.38;;
76962;SDS011;65902;51.452;7.198;2023-05-23T06:10:04;16.60;;;11.07;;
76962;SDS011;65902;51.452;7.198;2023-05-23T06:11:05;17.20;;;10.88;;
76962;SDS011;65902;51.452;7.198;2023-05-23T06:12:05;15.70;;;11.70;;
76962;SDS011;65902;51.452;7.198;2023-05-23T06:13:06;14.35;;;10.48;;
76962;SDS011;65902;51.452;7.198;2023-05-23T06:14:07;15.52;;;10.60;;
76962;SDS011;65902;51.452;7.198;2023-05-23T06:15:08;20.25;;;11.52;;
76962;SDS011;65902;51.452;7.198;2023-05-23T06:16:09;16.05;;;11.18;;
76962;SDS011;65902;51.452;7.198;2023-05-23T06:17:09;15.23;;;11.43;;
76962;SDS011;65902;51.452;7.198;2023-05-23T06:18:09;17.63;;;11.80;;
76962;SDS011;65902;51.452;7.198;2023-05-23T06:19:11;15.88;;;11.45;;
76962;SDS011;65902;51.452;7.198;2023-05-23T06:20:11;18.77;;;12.05;;
76962;SDS011;65902;51.452;7.198;2023-05-23T06:21:13;15.32;;;11.20;;
76962;SDS011;65902;51.452;7.198;2023-05-23T06:22:13;18.98;;;11.27;;
76962;SDS011;65902;51.452;7.198;2023-05-23T06:23:14;15.13;;;11.15;;
76962;SDS011;65902;51.452;7.198;2023-05-23T06:24:15;15.07;;;11.30;;
76962;SDS011;65902;51.452;7.198;2023-05-23T06:25:15;15.57;;;10.85;;
76962;SDS011;65902;51.452;7.198;2023-05-23T06:26:16;16.45;;;10.68;;